createdAt,value
2019-03-31T00:01:24.326Z,92.50
2019-03-31T00:04:10.142Z,92.40
2019-03-31T00:06:55.442Z,92.50
2019-03-31T00:09:41.029Z,92.50
2019-03-31T00:12:26.459Z,92.70
2019-03-31T00:15:11.594Z,92.70
2019-03-31T00:17:57.407Z,92.50
2019-03-31T00:20:42.493Z,92.40
2019-03-31T00:23:28.266Z,92.60
2019-03-31T00:26:14.029Z,92.30
2019-03-31T00:28:59.398Z,92.30
2019-03-31T00:31:44.779Z,92.20
2019-03-31T00:34:30.446Z,92.40
2019-03-31T00:37:16.379Z,92.70
2019-03-31T00:40:01.443Z,93.00
2019-03-31T00:42:47.382Z,93.00
2019-03-31T00:45:33.207Z,93.10
2019-03-31T00:48:18.867Z,93.20
2019-03-31T00:51:04.213Z,93.30
2019-03-31T00:53:49.786Z,93.50
2019-03-31T00:56:35.570Z,93.60
2019-03-31T00:59:21.079Z,93.80
2019-03-31T01:02:10.407Z,93.90
2019-03-31T01:04:56.291Z,94.10
2019-03-31T01:07:41.765Z,94.10
2019-03-31T01:10:27.153Z,94.40
2019-03-31T01:13:12.795Z,94.70
2019-03-31T01:15:58.334Z,95.00
2019-03-31T01:18:43.994Z,95.40
2019-03-31T01:21:29.793Z,95.60
2019-03-31T01:24:15.318Z,95.80
2019-03-31T01:27:01.346Z,96.30
2019-03-31T01:29:47.186Z,96.40
2019-03-31T01:32:32.657Z,97.00
2019-03-31T01:35:18.191Z,97.30
2019-03-31T01:38:03.365Z,97.90
2019-03-31T01:40:49.286Z,98.60
2019-03-31T01:43:34.786Z,98.70
2019-03-31T01:46:20.658Z,98.90
2019-03-31T01:49:06.129Z,99.20
2019-03-31T01:51:51.998Z,99.60
2019-03-31T01:54:37.882Z,99.90
2019-03-31T01:57:23.565Z,99.90
2019-03-31T02:00:14.865Z,99.90
2019-03-31T02:03:01.058Z,99.90
2019-03-31T02:05:46.139Z,99.90
2019-03-31T02:08:31.698Z,99.90
2019-03-31T02:11:17.588Z,99.90
2019-03-31T02:14:02.995Z,99.90
2019-03-31T02:16:49.043Z,99.90
2019-03-31T02:19:35.026Z,99.90
2019-03-31T02:22:20.395Z,99.90
2019-03-31T02:25:05.590Z,99.90
2019-03-31T02:27:51.022Z,99.90
2019-03-31T02:30:36.189Z,99.90
2019-03-31T02:33:21.882Z,99.90
2019-03-31T02:36:07.611Z,99.90
2019-03-31T02:38:53.307Z,99.90
2019-03-31T02:41:38.811Z,99.90
2019-03-31T02:44:23.962Z,99.90
2019-03-31T02:47:09.159Z,99.90
2019-03-31T02:49:54.863Z,99.90
2019-03-31T02:52:40.706Z,99.90
2019-03-31T02:55:26.494Z,99.90
2019-03-31T02:58:11.872Z,99.90
2019-03-31T03:00:57.555Z,99.90
2019-03-31T03:03:43.158Z,99.90
2019-03-31T03:06:29.423Z,99.90
2019-03-31T03:09:15.192Z,99.90
2019-03-31T03:12:01.185Z,99.90
2019-03-31T03:14:47.164Z,99.90
2019-03-31T03:17:32.835Z,99.90
2019-03-31T03:20:18.723Z,99.90
2019-03-31T03:23:03.795Z,99.90
2019-03-31T03:25:56.198Z,99.90
2019-03-31T03:28:36.887Z,99.90
2019-03-31T03:31:22.552Z,99.90
2019-03-31T03:34:08.379Z,99.90
2019-03-31T03:36:54.179Z,99.90
2019-03-31T03:39:39.536Z,99.90
2019-03-31T03:42:25.890Z,99.90
2019-03-31T03:45:10.898Z,99.90
2019-03-31T03:47:56.327Z,99.90
2019-03-31T03:50:41.557Z,99.90
2019-03-31T03:53:26.987Z,99.90
2019-03-31T03:56:13.006Z,99.90
2019-03-31T03:58:58.165Z,99.90
2019-03-31T04:01:43.820Z,99.90
2019-03-31T04:04:29.351Z,99.90
2019-03-31T04:07:14.947Z,99.90
2019-03-31T04:10:00.826Z,99.90
2019-03-31T04:12:46.319Z,99.90
2019-03-31T04:15:32.282Z,99.90
2019-03-31T04:18:17.868Z,99.90
2019-03-31T04:21:03.071Z,99.90
2019-03-31T04:23:48.760Z,99.90
2019-03-31T04:26:34.202Z,99.90
2019-03-31T04:29:20.063Z,99.90
2019-03-31T04:32:05.771Z,99.90
2019-03-31T04:34:51.563Z,99.90
2019-03-31T04:37:37.202Z,99.90
2019-03-31T04:40:22.979Z,99.90
2019-03-31T04:43:08.163Z,99.90
2019-03-31T04:45:53.618Z,99.90
2019-03-31T04:48:39.362Z,99.90
2019-03-31T04:51:25.491Z,99.90
2019-03-31T04:54:11.275Z,99.90
2019-03-31T04:56:56.570Z,99.90
2019-03-31T04:59:42.171Z,99.90
2019-03-31T05:02:27.497Z,99.90
2019-03-31T05:05:13.451Z,99.90
2019-03-31T05:07:58.964Z,99.90
2019-03-31T05:10:44.390Z,99.90
2019-03-31T05:13:29.998Z,99.90
2019-03-31T05:16:15.666Z,99.90
2019-03-31T05:19:01.818Z,99.90
2019-03-31T05:21:46.738Z,99.90
2019-03-31T05:24:32.402Z,99.90
2019-03-31T05:27:17.874Z,99.90
2019-03-31T05:30:03.962Z,99.90
2019-03-31T05:32:49.282Z,99.90
2019-03-31T05:35:34.907Z,99.90
2019-03-31T05:38:20.481Z,99.90
2019-03-31T05:41:06.575Z,99.90
2019-03-31T05:44:05.106Z,99.90
2019-03-31T05:46:39.691Z,99.90
2019-03-31T05:49:25.662Z,99.90
2019-03-31T05:52:11.262Z,99.90
2019-03-31T05:54:56.594Z,99.90
2019-03-31T05:57:42.306Z,99.90
2019-03-31T06:00:29.082Z,99.90
2019-03-31T06:03:14.522Z,99.90
2019-03-31T06:06:00.438Z,99.90
2019-03-31T06:08:46.058Z,99.90
2019-03-31T06:11:31.435Z,99.90
2019-03-31T06:14:17.094Z,99.90
2019-03-31T06:17:02.174Z,99.90
2019-03-31T06:19:47.918Z,99.90
2019-03-31T06:22:33.896Z,99.90
2019-03-31T06:25:19.683Z,99.90
2019-03-31T06:28:05.146Z,99.90
2019-03-31T06:30:50.870Z,99.90
2019-03-31T06:33:36.298Z,99.90
2019-03-31T06:36:22.490Z,99.90
2019-03-31T06:39:07.671Z,99.90
2019-03-31T06:41:53.341Z,99.90
2019-03-31T06:44:38.428Z,99.90
2019-03-31T06:47:23.875Z,99.90
2019-03-31T06:50:09.194Z,99.90
2019-03-31T06:52:54.534Z,99.90
2019-03-31T06:55:40.063Z,99.90
2019-03-31T06:58:25.076Z,99.90
2019-03-31T07:01:10.935Z,99.90
2019-03-31T07:03:56.714Z,99.90
2019-03-31T07:06:41.946Z,99.90
2019-03-31T07:09:27.664Z,99.90
2019-03-31T07:12:13.034Z,99.90
2019-03-31T07:14:58.813Z,99.90
2019-03-31T07:17:44.595Z,99.90
2019-03-31T07:20:30.689Z,99.90
2019-03-31T07:23:16.358Z,99.90
2019-03-31T07:26:02.040Z,99.90
2019-03-31T07:28:47.942Z,99.90
2019-03-31T07:31:33.294Z,99.90
2019-03-31T07:34:18.985Z,99.90
2019-03-31T07:37:04.278Z,99.90
2019-03-31T07:39:49.792Z,99.90
2019-03-31T07:42:35.594Z,99.90
2019-03-31T07:45:21.271Z,99.90
2019-03-31T07:48:08.243Z,99.90
2019-03-31T07:50:54.024Z,99.90
2019-03-31T07:53:39.816Z,99.90
2019-03-31T07:56:25.466Z,99.90
2019-03-31T07:59:11.323Z,99.90
2019-03-31T08:01:57.287Z,99.90
2019-03-31T08:04:42.906Z,99.90
2019-03-31T08:07:28.862Z,99.90
2019-03-31T08:10:14.322Z,99.90
2019-03-31T08:12:59.800Z,99.90
2019-03-31T08:15:45.414Z,99.90
2019-03-31T08:18:30.406Z,99.90
2019-03-31T08:21:15.808Z,99.90
2019-03-31T08:24:01.693Z,99.90
2019-03-31T08:26:48.230Z,99.90
2019-03-31T08:29:33.974Z,99.90
2019-03-31T08:32:19.269Z,99.90
2019-03-31T08:35:04.893Z,99.90
2019-03-31T08:37:50.409Z,99.90
2019-03-31T08:40:36.286Z,99.90
2019-03-31T08:43:22.762Z,99.90
2019-03-31T08:46:08.650Z,99.90
2019-03-31T08:48:54.238Z,99.90
2019-03-31T08:51:39.603Z,99.90
2019-03-31T08:54:25.587Z,99.90
2019-03-31T08:57:11.107Z,99.90
2019-03-31T08:59:56.401Z,99.90
2019-03-31T09:02:41.930Z,99.90
2019-03-31T09:05:30.373Z,99.90
2019-03-31T09:08:16.766Z,99.90
2019-03-31T09:11:03.562Z,99.90
2019-03-31T09:13:49.163Z,99.90
2019-03-31T09:16:34.898Z,99.90
2019-03-31T09:19:19.950Z,99.90
2019-03-31T09:22:05.742Z,99.90
2019-03-31T09:24:51.792Z,99.90
2019-03-31T09:27:37.714Z,99.90
2019-03-31T09:30:23.243Z,99.90
2019-03-31T09:33:09.279Z,99.90
2019-03-31T09:35:54.547Z,99.90
2019-03-31T09:38:40.339Z,99.90
2019-03-31T09:41:25.711Z,99.90
2019-03-31T09:44:11.474Z,99.90
2019-03-31T09:46:56.766Z,99.90
2019-03-31T09:49:42.532Z,99.90
2019-03-31T09:52:28.094Z,99.90
2019-03-31T09:55:13.174Z,99.90
2019-03-31T09:57:58.599Z,99.90
2019-03-31T10:00:47.782Z,99.90
2019-03-31T10:03:33.679Z,99.90
2019-03-31T10:06:29.624Z,99.90
2019-03-31T10:09:06.850Z,99.90
2019-03-31T10:11:52.770Z,99.90
2019-03-31T10:14:38.050Z,99.90
2019-03-31T10:17:23.635Z,99.90
2019-03-31T10:20:09.487Z,99.90
2019-03-31T10:22:55.282Z,99.90
2019-03-31T10:25:40.594Z,99.90
2019-03-31T10:28:26.023Z,99.90
2019-03-31T10:31:11.534Z,99.90
2019-03-31T10:33:57.098Z,99.90
2019-03-31T10:36:44.854Z,99.90
2019-03-31T10:39:29.826Z,99.90
2019-03-31T10:42:15.834Z,99.90
2019-03-31T10:45:01.823Z,99.90
2019-03-31T10:47:47.035Z,99.90
2019-03-31T10:50:32.837Z,99.90
2019-03-31T10:53:18.210Z,99.90
2019-03-31T10:56:03.836Z,99.90
2019-03-31T10:58:49.598Z,99.90
2019-03-31T11:01:35.103Z,99.90
2019-03-31T11:04:20.785Z,99.90
2019-03-31T11:07:06.630Z,99.90
2019-03-31T11:09:52.082Z,99.90
2019-03-31T11:12:37.678Z,99.90
2019-03-31T11:15:23.463Z,99.90
2019-03-31T11:18:08.836Z,99.90
2019-03-31T11:20:54.206Z,99.90
2019-03-31T11:23:39.654Z,99.90
2019-03-31T11:26:25.026Z,96.30
2019-03-31T11:29:10.367Z,93.60
2019-03-31T11:31:56.048Z,91.60
2019-03-31T11:34:41.472Z,91.50
2019-03-31T11:37:26.956Z,92.00
2019-03-31T11:40:12.846Z,92.90
2019-03-31T11:42:58.606Z,92.60
2019-03-31T11:45:44.638Z,93.40
2019-03-31T11:48:29.910Z,93.60
2019-03-31T11:51:15.538Z,93.80
2019-03-31T11:54:00.806Z,95.50
2019-03-31T11:56:46.716Z,95.20
2019-03-31T11:59:32.101Z,92.70
2019-03-31T12:02:26.840Z,92.80
2019-03-31T12:05:06.340Z,94.10
2019-03-31T12:07:52.066Z,93.90
2019-03-31T12:10:37.218Z,94.90
2019-03-31T12:13:22.930Z,95.70
2019-03-31T12:16:08.371Z,96.90
2019-03-31T12:18:54.338Z,97.90
2019-03-31T12:21:40.199Z,98.20
2019-03-31T12:24:25.966Z,99.00
2019-03-31T12:27:11.518Z,99.20
2019-03-31T12:29:57.386Z,99.20
2019-03-31T12:32:42.598Z,99.90
2019-03-31T12:35:28.174Z,98.50
2019-03-31T12:38:13.503Z,93.40
2019-03-31T12:41:01.770Z,93.20
2019-03-31T12:43:47.623Z,92.60
2019-03-31T12:46:32.734Z,93.60
2019-03-31T12:49:18.170Z,92.40
2019-03-31T12:52:03.486Z,91.60
2019-03-31T12:54:49.514Z,91.80
2019-03-31T12:57:34.691Z,89.80
2019-03-31T13:00:20.366Z,86.30
2019-03-31T13:03:05.673Z,90.50
2019-03-31T13:05:50.862Z,88.90
2019-03-31T13:08:36.594Z,90.40
2019-03-31T13:11:21.864Z,91.40
2019-03-31T13:14:07.522Z,92.30
2019-03-31T13:16:53.406Z,93.10
2019-03-31T13:19:38.824Z,93.40
2019-03-31T13:22:24.181Z,94.50
2019-03-31T13:25:09.650Z,94.30
2019-03-31T13:27:55.605Z,91.10
2019-03-31T13:30:41.695Z,89.40
2019-03-31T13:33:27.270Z,90.10
2019-03-31T13:36:12.550Z,86.00
2019-03-31T13:38:58.223Z,80.70
2019-03-31T13:41:45.670Z,77.60
2019-03-31T13:44:31.690Z,77.60
2019-03-31T13:47:16.906Z,75.80
2019-03-31T13:50:02.775Z,77.70
2019-03-31T13:52:48.213Z,80.60
2019-03-31T13:55:33.786Z,83.40
2019-03-31T13:58:19.456Z,85.90
2019-03-31T14:01:05.195Z,88.40
2019-03-31T14:03:50.486Z,89.40
2019-03-31T14:06:36.648Z,90.60
2019-03-31T14:09:22.167Z,90.70
2019-03-31T14:12:07.515Z,92.20
2019-03-31T14:14:52.891Z,92.40
2019-03-31T14:17:38.274Z,92.30
2019-03-31T14:20:24.110Z,92.60
2019-03-31T14:23:09.734Z,92.70
2019-03-31T14:25:54.830Z,93.60
2019-03-31T14:28:40.270Z,93.70
2019-03-31T14:31:26.109Z,93.60
2019-03-31T14:34:11.300Z,93.20
2019-03-31T14:36:56.622Z,92.30
2019-03-31T14:39:42.735Z,92.30
2019-03-31T14:42:27.954Z,92.60
2019-03-31T14:45:17.158Z,92.30
2019-03-31T14:48:02.810Z,92.00
2019-03-31T14:50:48.310Z,92.40
2019-03-31T14:53:33.943Z,90.80
2019-03-31T14:56:19.871Z,84.90
2019-03-31T14:59:05.108Z,84.10
2019-03-31T15:01:50.751Z,84.10
2019-03-31T15:04:36.299Z,81.30
2019-03-31T15:07:22.216Z,83.40
2019-03-31T15:10:07.814Z,81.10
2019-03-31T15:12:54.042Z,82.20
2019-03-31T15:15:39.926Z,84.80
2019-03-31T15:18:25.610Z,85.60
2019-03-31T15:21:15.914Z,85.30
2019-03-31T15:24:01.926Z,86.30
2019-03-31T15:26:47.555Z,89.70
2019-03-31T15:29:33.131Z,87.60
2019-03-31T15:32:18.602Z,87.40
2019-03-31T15:35:04.586Z,88.40
2019-03-31T15:37:49.863Z,89.80
2019-03-31T15:40:35.551Z,88.60
2019-03-31T15:43:21.114Z,89.60
2019-03-31T15:46:07.098Z,89.20
2019-03-31T15:48:52.878Z,90.00
2019-03-31T15:51:38.762Z,90.40
2019-03-31T15:54:24.433Z,89.50
2019-03-31T15:57:10.218Z,90.30
2019-03-31T15:59:55.899Z,90.00
2019-03-31T16:02:41.166Z,88.20
2019-03-31T16:05:26.275Z,88.70
2019-03-31T16:08:11.701Z,90.20
2019-03-31T16:10:56.876Z,90.40
2019-03-31T16:13:42.390Z,91.00
2019-03-31T16:16:30.501Z,91.30
2019-03-31T16:19:14.479Z,91.10
2019-03-31T16:22:00.182Z,91.70
2019-03-31T16:24:47.837Z,91.90
2019-03-31T16:27:32.694Z,92.70
2019-03-31T16:30:17.742Z,92.60
2019-03-31T16:33:06.763Z,93.10
2019-03-31T16:35:50.515Z,93.40
2019-03-31T16:38:35.875Z,93.70
2019-03-31T16:41:21.270Z,93.40
2019-03-31T16:44:06.426Z,93.60
2019-03-31T16:46:51.915Z,93.90
2019-03-31T16:49:37.599Z,94.50
2019-03-31T16:52:22.846Z,94.80
2019-03-31T16:55:07.995Z,95.40
2019-03-31T16:57:53.194Z,95.30
2019-03-31T17:00:38.202Z,95.30
2019-03-31T17:03:23.839Z,95.10
2019-03-31T17:06:08.898Z,95.50
2019-03-31T17:08:54.173Z,95.70
2019-03-31T17:11:39.631Z,95.60
2019-03-31T17:14:25.523Z,95.80
2019-03-31T17:17:10.898Z,96.30
2019-03-31T17:19:56.538Z,96.90
2019-03-31T17:22:41.949Z,97.30
2019-03-31T17:25:27.110Z,97.20
2019-03-31T17:28:12.284Z,97.20
2019-03-31T17:30:57.153Z,96.50
2019-03-31T17:33:42.513Z,96.70
2019-03-31T17:36:27.882Z,96.50
2019-03-31T17:39:13.459Z,96.70
2019-03-31T17:41:58.798Z,96.90
2019-03-31T17:44:44.812Z,97.20
2019-03-31T17:47:29.767Z,97.50
2019-03-31T17:50:15.450Z,97.90
2019-03-31T17:53:03.687Z,98.40
2019-03-31T17:55:47.597Z,98.80
2019-03-31T17:58:32.691Z,98.90
2019-03-31T18:01:18.477Z,99.20
2019-03-31T18:04:03.837Z,99.70
2019-03-31T18:06:49.062Z,99.80
2019-03-31T18:09:34.174Z,99.90
2019-03-31T18:12:18.991Z,99.90
2019-03-31T18:15:04.742Z,99.90
2019-03-31T18:17:49.986Z,99.90
2019-03-31T18:20:35.562Z,99.90
2019-03-31T18:23:21.646Z,99.90
2019-03-31T18:26:06.914Z,99.90
2019-03-31T18:28:52.392Z,99.90
2019-03-31T18:31:37.444Z,99.90
2019-03-31T18:34:23.026Z,99.90
2019-03-31T18:37:08.505Z,99.90
2019-03-31T18:39:54.078Z,99.90
2019-03-31T18:42:39.466Z,99.90
2019-03-31T18:45:25.027Z,99.90
2019-03-31T18:48:10.505Z,99.90
2019-03-31T18:50:56.486Z,99.90
2019-03-31T18:53:53.551Z,99.90
2019-03-31T18:56:52.832Z,99.90
2019-03-31T19:00:01.003Z,99.90
2019-03-31T19:03:17.908Z,99.90
2019-03-31T19:06:24.758Z,99.90
2019-03-31T19:09:20.429Z,99.90
2019-03-31T19:12:23.714Z,99.90
2019-03-31T19:15:32.012Z,99.90
2019-03-31T19:18:32.494Z,99.90
2019-03-31T19:21:32.019Z,99.90
2019-03-31T19:24:25.030Z,99.90
2019-03-31T19:27:30.138Z,99.90
2019-03-31T19:30:43.261Z,99.90
2019-03-31T19:33:38.047Z,99.90
2019-03-31T19:36:37.227Z,99.90
2019-03-31T19:39:54.382Z,99.90
2019-03-31T19:42:57.771Z,99.90
2019-03-31T19:45:51.427Z,99.90
2019-03-31T19:48:49.736Z,99.90
2019-03-31T19:51:53.688Z,99.90
2019-03-31T19:54:58.726Z,99.90
2019-03-31T19:58:12.894Z,99.90
2019-03-31T20:01:14.275Z,99.90
2019-03-31T20:04:15.854Z,99.90
2019-03-31T20:07:26.866Z,99.90
2019-03-31T20:10:21.068Z,99.90
2019-03-31T20:13:24.979Z,99.90
2019-03-31T20:16:19.541Z,99.90
2019-03-31T20:19:15.118Z,99.90
2019-03-31T20:22:29.451Z,99.90
2019-03-31T20:25:42.366Z,99.90
2019-03-31T20:28:50.171Z,99.90
2019-03-31T20:32:01.091Z,99.90
2019-03-31T20:35:17.978Z,99.90
2019-03-31T20:38:22.140Z,99.90
2019-03-31T20:41:30.162Z,99.90
2019-03-31T20:44:15.742Z,99.90
2019-03-31T20:47:00.969Z,99.90
2019-03-31T20:49:46.038Z,99.90
2019-03-31T20:52:31.448Z,99.90
2019-03-31T20:55:17.037Z,99.90
2019-03-31T20:58:02.498Z,99.90
2019-03-31T21:00:47.569Z,99.90
2019-03-31T21:03:32.894Z,99.90
2019-03-31T21:06:17.960Z,99.90
2019-03-31T21:09:05.002Z,99.90
2019-03-31T21:11:50.478Z,99.90
2019-03-31T21:14:35.742Z,99.90
2019-03-31T21:17:20.911Z,99.90
2019-03-31T21:20:05.899Z,99.90
2019-03-31T21:22:50.772Z,99.90
2019-03-31T21:25:35.458Z,99.90
2019-03-31T21:28:20.272Z,99.90
2019-03-31T21:31:05.476Z,99.90
2019-03-31T21:33:50.341Z,99.90
2019-03-31T21:36:36.158Z,99.90
2019-03-31T21:39:21.439Z,99.90
2019-03-31T21:42:06.362Z,99.90
2019-03-31T21:44:51.458Z,99.90
2019-03-31T21:47:37.130Z,99.90
2019-03-31T21:50:22.361Z,99.90
2019-03-31T21:53:07.651Z,99.90
2019-03-31T21:55:53.147Z,99.90
2019-03-31T21:58:38.174Z,99.90
2019-03-31T22:01:23.576Z,99.90
2019-03-31T22:04:08.665Z,99.90
2019-03-31T22:06:53.887Z,99.90
2019-03-31T22:09:38.941Z,99.70
2019-03-31T22:12:24.041Z,99.90
2019-03-31T22:15:09.398Z,99.70
2019-03-31T22:17:54.476Z,99.90
2019-03-31T22:20:39.310Z,99.60
2019-03-31T22:23:24.455Z,99.70
2019-03-31T22:26:09.527Z,99.60
2019-03-31T22:28:55.025Z,99.70
2019-03-31T22:31:41.237Z,99.90
2019-03-31T22:34:26.175Z,99.90
2019-03-31T22:37:11.461Z,99.80
2019-03-31T22:39:56.674Z,99.90
2019-03-31T22:42:41.618Z,99.80
2019-03-31T22:45:27.158Z,99.70
2019-03-31T22:48:12.358Z,99.60
2019-03-31T22:50:57.174Z,99.80
2019-03-31T22:53:42.360Z,99.70
2019-03-31T22:56:27.461Z,99.70
2019-03-31T22:59:12.638Z,99.90
2019-03-31T23:01:58.366Z,99.90
2019-03-31T23:04:44.251Z,99.90
2019-03-31T23:07:29.471Z,99.90
2019-03-31T23:10:14.467Z,99.90
2019-03-31T23:12:59.287Z,99.80
2019-03-31T23:15:44.639Z,99.70
2019-03-31T23:18:30.079Z,99.80
2019-03-31T23:21:15.654Z,99.70
2019-03-31T23:24:01.131Z,99.90
2019-03-31T23:26:46.339Z,99.90
2019-03-31T23:29:31.871Z,99.90
2019-03-31T23:32:17.022Z,99.90
2019-03-31T23:35:02.139Z,99.90
2019-03-31T23:37:47.207Z,99.90
2019-03-31T23:40:32.327Z,99.90
2019-03-31T23:43:17.484Z,99.90
2019-03-31T23:46:02.430Z,99.90
2019-03-31T23:48:48.142Z,99.90
2019-03-31T23:51:33.774Z,99.90
2019-03-31T23:54:19.030Z,99.90
2019-03-31T23:57:04.035Z,99.90
2019-03-31T23:59:49.385Z,99.90
